Delta Virtual Airport Information Service

Flint Bishop International Airport

ICAO: KFNT Country: United States
Latitude: 42.9654 Longitude: -83.7436
Latest Arrival : DAC4983 (KSAN-KFNT) Latest Departure : DAC6635 (KFNT-TNCM)


WX CaptureLIVE
Data provided by noaa.gov | Fetched at 05:00:28

METAR : KFNT 300953Z AUTO 25005KT 10SM BKN014 BKN021 OVC032 09/08 A2959 RMK AO2 RAB05E50 SLP021 P0010 T00940083 $

TAF : KFNT 300520Z 3006/0106 25006KT P6SM BKN070 FM300900 21010KT 6SM -SHRA BKN040 OVC060 FM301400 22014KT 6SM -SHRA BR SCT035 BKN045 OVC060 FM301800 26012G20KT P6SM SCT035 BKN050 TEMPO 3018/3021 5SM TSRA BR BKN035CB OVC050 FM302300 27010KT P6SM SCT028 OVC045


Runway Data for KFNT
Data provided by openaviationdata.com

Runway ID Mag Var Hdg Length Elevation Surface ILS Freq ILS Id ILS Slope
5 -5 52° 4287 ft 782 ft Asphalt -- -- --
9 -5 94° 7186 ft 782 ft Asphalt 109.9 IFNT 2
18 -5 184° 7850 ft 782 ft Asphalt -- -- --
23 -5 232° 4287 ft 782 ft Asphalt -- -- --
27 -5 274° 7186 ft 782 ft Asphalt 109.9 ITUN 3
36 -5 7850 ft 782 ft Asphalt -- -- --

Flint Bishop International Airport, United States
Use only for reference purposes



Not for navigational purposes.